Time;durP1;ratioP1;P1;durP2;ratioP2;P2;SDS_P1;SDS_P2;PMS_P1;PMS_P2;Temp;Humidity;BMP_temperature;BMP_pressure;BME280_temperature;BME280_humidity;BME280_pressure;Samples;Min_cycle;Max_cycle;Signal;HPM_P1;HPM_P2
2022/04/12 00:01:19;;;;;;;4.72;2.35;;;;;;;11.52;36.17;101538.41;4999376;28;103053;-68
2022/04/12 00:03:45;;;;;;;8.40;2.63;;;;;;;11.42;36.44;101539.53;4996717;28;99192;-69
2022/04/12 00:06:13;;;;;;;6.50;2.58;;;;;;;11.02;37.18;101546.78;5002472;28;96811;-69
2022/04/12 00:08:39;;;;;;;4.13;1.92;;;;;;;11.35;36.86;101542.44;4998754;28;97643;-68
2022/04/12 00:11:06;;;;;;;5.43;2.53;;;;;;;11.68;36.21;101546.81;4996890;28;99460;-69
2022/04/12 00:13:32;;;;;;;6.47;1.90;;;;;;;11.84;36.12;101548.16;4997015;28;99290;-68
2022/04/12 00:15:59;;;;;;;4.60;2.13;;;;;;;11.84;36.29;101547.28;5001745;28;97628;-70
2022/04/12 00:21:20;;;;;;;6.57;2.05;;;;;;;11.14;37.30;101551.78;5001966;28;97702;-69
2022/04/12 00:23:46;;;;;;;11.70;2.70;;;;;;;11.17;37.40;101554.31;4997165;28;97987;-70
2022/04/12 00:26:13;;;;;;;6.55;2.40;;;;;;;10.91;37.76;101551.44;5004479;28;96979;-71
2022/04/12 00:28:40;;;;;;;10.50;3.40;;;;;;;11.29;37.36;101554.00;4998650;28;96879;-71
2022/04/12 00:31:07;;;;;;;6.97;2.50;;;;;;;11.17;37.54;101549.03;4996010;28;98895;-70
2022/04/12 00:33:33;;;;;;;6.53;2.47;;;;;;;11.64;36.73;101547.78;5007546;28;99050;-70
2022/04/12 00:36:02;;;;;;;5.75;2.38;;;;;;;11.51;36.86;101549.03;4999660;28;98398;-70
2022/04/12 00:38:33;;;;;;;9.07;3.17;;;;;;;11.58;36.87;101550.59;5004104;28;96872;-71
2022/04/12 00:41:00;;;;;;;6.60;2.30;;;;;;;11.56;36.89;101544.47;5003333;28;101915;-70
2022/04/12 00:43:28;;;;;;;6.28;2.60;;;;;;;11.28;37.23;101543.50;5000032;28;99329;-70
2022/04/12 00:46:00;;;;;;;7.57;2.53;;;;;;;11.64;37.13;101544.28;5004438;28;97124;-70
2022/04/12 00:48:26;;;;;;;8.40;2.28;;;;;;;11.77;36.50;101538.63;4998386;28;96864;-70
2022/04/12 00:50:52;;;;;;;11.27;2.38;;;;;;;11.93;36.54;101539.09;4999728;28;99360;-71
2022/04/12 00:53:19;;;;;;;6.85;2.92;;;;;;;11.81;36.70;101532.38;5003459;28;99412;-70
2022/04/12 00:55:47;;;;;;;9.32;2.53;;;;;;;11.67;36.53;101538.91;5004333;28;96736;-70
2022/04/12 00:58:14;;;;;;;5.47;2.33;;;;;;;11.49;37.12;101541.13;5007372;28;97029;-70
2022/04/12 01:00:40;;;;;;;9.18;2.72;;;;;;;11.38;37.04;101539.69;5006487;28;99113;-70
2022/04/12 01:03:06;;;;;;;5.40;2.70;;;;;;;11.46;36.66;101535.94;5000770;28;100297;-70
2022/04/12 01:05:56;;;;;;;7.32;2.55;;;;;;;11.76;36.16;101539.53;5002493;28;96844;-70
2022/04/12 01:08:23;;;;;;;5.47;2.20;;;;;;;11.57;36.42;101532.97;5000576;28;96846;-70
2022/04/12 01:10:53;;;;;;;8.50;2.63;;;;;;;11.68;36.10;101540.66;5009573;28;98082;-69
2022/04/12 01:13:19;;;;;;;8.98;2.72;;;;;;;11.42;36.82;101536.91;5003844;28;98579;-70
2022/04/12 01:15:46;;;;;;;6.78;2.72;;;;;;;11.63;36.22;101537.25;4997252;28;96788;-70
2022/04/12 01:18:30;;;;;;;5.90;2.70;;;;;;;11.63;36.25;101538.09;5003083;28;98985;-69
2022/04/12 01:20:57;;;;;;;7.32;2.92;;;;;;;11.41;36.42;101534.31;5005146;28;98286;-70
2022/04/12 01:23:28;;;;;;;7.90;2.88;;;;;;;11.37;36.82;101543.22;4999752;28;98950;-69
2022/04/12 01:25:57;;;;;;;8.15;2.50;;;;;;;11.57;36.02;101533.84;5000271;28;96951;-70
2022/04/12 01:28:23;;;;;;;7.57;3.20;;;;;;;11.64;36.24;101538.97;5000878;28;97793;-70
2022/04/12 01:30:51;;;;;;;11.43;3.00;;;;;;;11.65;36.33;101535.44;5006367;28;98209;-69
2022/04/12 01:33:17;;;;;;;8.90;3.35;;;;;;;11.66;36.28;101534.53;5000173;28;98094;-70
2022/04/12 01:35:44;;;;;;;7.32;2.65;;;;;;;11.63;36.50;101538.09;5007185;28;96868;-70
2022/04/12 01:38:10;;;;;;;5.55;2.65;;;;;;;11.59;36.69;101532.03;5003844;28;98781;-70
2022/04/12 01:40:37;;;;;;;7.82;2.65;;;;;;;11.47;37.13;101535.03;5010060;28;99019;-70
2022/04/12 01:43:05;;;;;;;8.48;2.70;;;;;;;11.36;36.98;101537.06;4999093;28;98174;-70
2022/04/12 01:45:31;;;;;;;7.47;3.00;;;;;;;11.55;36.92;101537.47;4999063;28;97064;-70
2022/04/12 01:48:04;;;;;;;6.13;2.75;;;;;;;11.60;36.58;101535.56;5000281;28;96848;-70
2022/04/12 01:50:32;;;;;;;9.88;2.30;;;;;;;11.31;37.12;101538.09;4998701;28;97728;-70
2022/04/12 01:52:59;;;;;;;9.20;2.83;;;;;;;11.41;37.36;101535.19;4996226;28;98921;-70
2022/04/12 01:55:25;;;;;;;7.38;2.70;;;;;;;11.07;37.65;101536.97;5005531;28;96772;-69
2022/04/12 01:57:52;;;;;;;7.70;2.70;;;;;;;11.26;37.36;101535.59;4997540;28;96904;-70
2022/04/12 02:00:20;;;;;;;6.30;2.63;;;;;;;11.35;37.57;101535.34;4996123;28;99044;-70
2022/04/12 02:02:46;;;;;;;11.95;3.08;;;;;;;11.47;37.10;101535.03;4998813;28;98231;-70
2022/04/12 02:05:13;;;;;;;7.50;2.78;;;;;;;11.36;37.42;101537.06;5010081;28;98419;-70
2022/04/12 02:07:42;;;;;;;12.80;2.78;;;;;;;10.98;37.65;101537.16;5001401;28;96860;-69
2022/04/12 02:10:10;;;;;;;6.80;2.92;;;;;;;11.20;37.24;101533.09;5005136;28;99617;-70
2022/04/12 02:12:37;;;;;;;7.82;3.03;;;;;;;11.05;37.74;101525.53;5001233;28;98845;-71
2022/04/12 02:15:05;;;;;;;7.03;2.72;;;;;;;11.11;37.41;101522.72;5004221;28;96947;-69
2022/04/12 02:18:14;;;;;;;9.75;3.08;;;;;;;11.12;37.07;101533.28;5010746;28;96933;-69
2022/04/12 02:20:41;;;;;;;8.65;3.03;;;;;;;10.36;38.76;101523.69;4993990;28;99529;-70
2022/04/12 02:23:07;;;;;;;6.22;2.65;;;;;;;10.78;38.32;101519.16;5006325;28;100062;-69
2022/04/12 02:25:34;;;;;;;9.63;2.83;;;;;;;10.78;38.05;101519.16;5003192;28;97358;-70
2022/04/12 02:28:00;;;;;;;5.53;2.80;;;;;;;10.39;38.93;101513.88;5005414;28;97336;-69
2022/04/12 02:30:27;;;;;;;9.02;3.20;;;;;;;10.51;38.48;101515.38;5001070;28;101714;-69
2022/04/12 02:32:54;;;;;;;10.93;3.53;;;;;;;10.64;38.11;101511.53;5000141;28;99128;-70
2022/04/12 02:35:21;;;;;;;9.35;3.20;;;;;;;10.76;38.46;101513.88;4999635;28;98835;-70
2022/04/12 02:37:47;;;;;;;12.05;3.65;;;;;;;10.75;38.73;101514.81;5000536;28;96981;-69
2022/04/12 02:40:14;;;;;;;6.53;3.28;;;;;;;10.91;38.26;101511.78;5004155;28;97887;-70
2022/04/12 02:42:40;;;;;;;6.25;3.40;;;;;;;10.56;38.40;101517.94;5000922;28;98859;-69
2022/04/12 02:45:08;;;;;;;11.77;3.30;;;;;;;10.16;39.17;101517.91;5006176;28;96762;-69
2022/04/12 02:47:34;;;;;;;7.82;3.05;;;;;;;10.64;38.74;101516.84;5006167;28;96797;-69
2022/04/12 02:50:02;;;;;;;10.80;3.47;;;;;;;10.73;38.36;101515.75;5002977;28;98954;-70
2022/04/12 02:52:28;;;;;;;8.20;3.47;;;;;;;10.88;38.38;101510.09;5004922;28;98927;-70
2022/04/12 02:54:55;;;;;;;13.85;4.75;;;;;;;10.91;38.51;101523.22;4999108;28;97738;-70
2022/04/12 02:57:21;;;;;;;9.60;4.05;;;;;;;10.87;37.97;101520.72;4993344;28;97642;-70
2022/04/12 02:59:48;;;;;;;12.13;4.32;;;;;;;10.81;38.36;101516.44;4999541;28;99151;-69
2022/04/12 03:02:14;;;;;;;7.70;3.25;;;;;;;10.90;38.42;101520.63;4997416;28;101134;-70
2022/04/12 03:04:41;;;;;;;9.60;3.80;;;;;;;10.77;38.26;101523.56;5004568;28;96772;-69
2022/04/12 03:07:09;;;;;;;8.68;3.63;;;;;;;10.65;38.75;101526.50;4994411;28;96858;-70
2022/04/12 03:09:36;;;;;;;10.55;3.35;;;;;;;10.75;38.50;101535.97;4999407;28;99092;-69
2022/04/12 03:12:02;;;;;;;9.57;3.65;;;;;;;10.81;38.13;101534.09;4993717;28;98967;-68
2022/04/12 03:14:29;;;;;;;9.77;3.47;;;;;;;10.66;38.48;101530.03;5006029;28;97245;-70
2022/04/12 03:16:55;;;;;;;12.25;3.40;;;;;;;10.66;38.51;101537.94;5002145;28;97688;-70
2022/04/12 03:19:22;;;;;;;10.52;3.35;;;;;;;10.68;38.80;101539.66;5001527;28;99469;-70
2022/04/12 03:21:48;;;;;;;14.13;3.50;;;;;;;10.67;38.39;101530.00;5005861;28;97482;-70
2022/04/12 03:24:16;;;;;;;10.93;3.20;;;;;;;10.74;38.45;101531.59;4999432;28;97008;-70
2022/04/12 03:26:43;;;;;;;9.35;3.60;;;;;;;10.57;39.03;101536.38;5002071;28;96867;-70
2022/04/12 03:29:09;;;;;;;8.75;3.58;;;;;;;10.77;39.25;101527.97;4998837;28;98880;-70
2022/04/12 03:32:12;;;;;;;6.68;3.15;;;;;;;11.01;37.99;101538.00;5000849;28;102122;-69
2022/04/12 03:34:40;;;;;;;6.97;3.17;;;;;;;10.58;39.29;101535.47;5002729;28;96886;-70
2022/04/12 03:37:07;;;;;;;11.90;3.67;;;;;;;10.71;38.60;101534.28;5002075;28;96906;-70
2022/04/12 03:39:35;;;;;;;8.35;3.40;;;;;;;10.51;39.26;101544.44;4997370;28;98937;-71
2022/04/12 03:42:04;;;;;;;8.05;3.97;;;;;;;10.55;39.32;101547.91;5002504;28;99308;-69
2022/04/12 03:44:30;;;;;;;11.93;3.80;;;;;;;10.66;38.83;101544.09;4998408;28;97142;-69
2022/04/12 03:46:57;;;;;;;9.52;3.70;;;;;;;10.33;39.46;101545.72;5002277;28;96899;-70
2022/04/12 03:49:23;;;;;;;11.10;4.53;;;;;;;10.24;40.58;101545.91;4997346;28;98872;-70
2022/04/12 03:51:49;;;;;;;13.05;3.95;;;;;;;10.54;39.62;101547.03;5002482;28;99629;-70
2022/04/12 03:54:47;;;;;;;13.15;3.85;;;;;;;10.39;39.94;101548.25;5004380;28;96771;-71
2022/04/12 03:57:26;;;;;;;9.30;3.80;;;;;;;10.54;39.51;101546.16;5000076;28;98920;-70
2022/04/12 04:02:51;;;;;;;8.80;3.95;;;;;;;10.46;39.80;101554.25;4989707;28;98475;-70
2022/04/12 04:05:18;;;;;;;10.15;4.07;;;;;;;10.35;39.93;101558.91;5008917;28;96645;-70
2022/04/12 04:07:45;;;;;;;9.40;4.00;;;;;;;10.50;39.76;101555.91;5005466;28;96954;-70
2022/04/12 04:10:11;;;;;;;9.85;4.18;;;;;;;10.34;40.43;101554.53;5001691;28;99071;-68
2022/04/12 04:12:39;;;;;;;11.00;4.65;;;;;;;10.39;40.26;101557.94;5002503;28;99284;-68
2022/04/12 04:15:11;;;;;;;17.38;4.20;;;;;;;10.46;39.88;101551.63;5007501;28;96840;-68
2022/04/12 04:17:38;;;;;;;16.55;4.93;;;;;;;10.48;39.98;101552.47;5006872;28;96855;-69
2022/04/12 04:20:05;;;;;;;14.20;4.35;;;;;;;10.63;39.67;101549.44;5005679;28;99055;-68
2022/04/12 04:22:32;;;;;;;13.15;3.80;;;;;;;10.55;39.77;101559.34;4997807;28;99669;-67
2022/04/12 04:24:58;;;;;;;12.18;4.38;;;;;;;10.44;40.22;101552.53;4998488;28;97770;-68
2022/04/12 04:27:28;;;;;;;9.48;3.95;;;;;;;10.30;40.81;101558.16;5001621;28;96942;-69
2022/04/12 04:29:56;;;;;;;12.52;4.38;;;;;;;10.29;40.32;101548.47;5003036;28;99534;-70
2022/04/12 04:32:23;;;;;;;16.10;4.93;;;;;;;10.42;40.89;101541.16;5005019;28;98656;-69
2022/04/12 04:34:49;;;;;;;14.73;4.50;;;;;;;10.42;40.38;101549.09;5005027;28;97635;-68
2022/04/12 04:37:16;;;;;;;9.57;4.82;;;;;;;10.31;40.74;101552.81;4999140;28;96988;-68
2022/04/12 04:39:42;;;;;;;16.73;4.55;;;;;;;10.24;40.28;101551.19;5006644;28;98980;-68
2022/04/12 04:42:08;;;;;;;13.43;5.03;;;;;;;10.48;40.01;101549.81;5003372;28;99080;-68
2022/04/12 04:44:35;;;;;;;15.82;4.88;;;;;;;10.57;39.56;101546.06;5001377;28;96760;-69
2022/04/12 04:47:03;;;;;;;16.73;6.43;;;;;;;10.43;40.07;101551.69;5002641;28;97000;-68
2022/04/12 04:49:29;;;;;;;17.25;5.00;;;;;;;10.58;39.65;101561.03;5004517;28;100158;-68
2022/04/12 04:51:56;;;;;;;14.18;5.18;;;;;;;10.70;39.38;101558.97;5006995;28;98853;-69
2022/04/12 04:54:22;;;;;;;12.10;4.78;;;;;;;10.36;39.55;101558.88;5005974;28;96910;-68
2022/04/12 04:56:48;;;;;;;10.60;5.10;;;;;;;10.89;38.43;101564.72;5008286;28;97004;-68
2022/04/12 04:59:15;;;;;;;14.07;5.25;;;;;;;10.94;38.54;101562.84;5004584;28;98922;-68
2022/04/12 05:01:41;;;;;;;14.65;5.05;;;;;;;10.96;38.69;101554.88;4999897;28;99292;-70
2022/04/12 05:04:09;;;;;;;16.15;5.07;;;;;;;10.62;39.55;101555.66;5000323;28;96796;-69
2022/04/12 05:06:35;;;;;;;17.88;6.22;;;;;;;10.54;39.75;101559.38;5006612;28;97550;-69
2022/04/12 05:09:02;;;;;;;9.45;4.70;;;;;;;10.82;38.83;101557.84;4999326;28;99066;-69
2022/04/12 05:11:28;;;;;;;17.60;5.00;;;;;;;10.96;38.66;101568.94;5001746;28;102043;-68
2022/04/12 05:13:55;;;;;;;12.25;4.60;;;;;;;10.99;38.22;101570.66;4999157;28;97047;-69
2022/04/12 05:16:22;;;;;;;8.90;4.38;;;;;;;10.93;38.51;101561.09;5005871;28;97884;-69
2022/04/12 05:18:48;;;;;;;8.30;4.45;;;;;;;11.03;38.37;101567.00;5002550;28;98927;-69
2022/04/12 05:21:16;;;;;;;12.13;5.03;;;;;;;10.85;38.76;101570.09;5002464;28;99057;-69
2022/04/12 05:23:53;;;;;;;14.50;4.90;;;;;;;10.94;38.70;101575.19;5002197;28;98982;-72
2022/04/12 05:26:20;;;;;;;13.95;4.72;;;;;;;11.22;38.05;101570.09;4999310;28;97322;-70
2022/04/12 05:28:46;;;;;;;11.73;4.82;;;;;;;11.32;37.81;101574.25;4998685;28;99293;-70
2022/04/12 05:31:14;;;;;;;9.10;4.43;;;;;;;11.35;37.58;101574.19;5001114;28;98742;-68
2022/04/12 05:33:40;;;;;;;12.93;4.93;;;;;;;11.53;37.03;101571.03;5001776;28;96785;-69
2022/04/12 05:36:07;;;;;;;7.30;4.57;;;;;;;11.69;36.73;101571.47;4995712;28;96812;-69
2022/04/12 05:38:36;;;;;;;17.77;5.07;;;;;;;11.68;36.55;101575.06;5001961;28;99088;-70
2022/04/12 05:41:02;;;;;;;9.55;4.63;;;;;;;11.68;36.40;101568.00;4993360;28;99519;-68
2022/04/12 05:43:28;;;;;;;11.30;4.60;;;;;;;11.99;36.16;101576.00;4996135;28;96847;-69
2022/04/12 05:45:55;;;;;;;10.07;5.13;;;;;;;12.20;35.42;101575.38;5001021;28;96920;-70
2022/04/12 05:48:22;;;;;;;13.45;4.97;;;;;;;12.18;35.65;101573.69;4996296;28;101526;-70
2022/04/12 05:50:48;;;;;;;15.13;5.00;;;;;;;12.46;35.01;101579.03;4993707;28;99131;-70
2022/04/12 05:53:15;;;;;;;12.95;5.28;;;;;;;12.37;35.04;101586.34;4998621;28;97149;-69
2022/04/12 05:55:42;;;;;;;10.32;4.55;;;;;;;11.95;35.23;101583.13;4998030;28;96927;-71
2022/04/12 05:58:09;;;;;;;9.75;4.82;;;;;;;12.25;35.06;101581.41;4958900;28;1168475;-70
2022/04/12 06:00:36;;;;;;;12.90;5.30;;;;;;;12.49;34.77;101579.81;4994483;28;99344;-69
2022/04/12 06:03:03;;;;;;;12.93;5.40;;;;;;;12.44;34.53;101584.38;5002697;28;96819;-71
2022/04/12 06:05:32;;;;;;;14.68;4.75;;;;;;;12.53;34.55;101589.41;5000764;28;96785;-69
2022/04/12 06:08:00;;;;;;;8.77;4.85;;;;;;;12.75;34.18;101592.25;5005926;28;97934;-68
2022/04/12 06:10:27;;;;;;;14.80;5.07;;;;;;;12.60;34.02;101600.72;5000728;28;98743;-68
2022/04/12 06:12:55;;;;;;;15.68;4.43;;;;;;;12.63;33.78;101605.91;5001193;28;96935;-68
2022/04/12 06:15:22;;;;;;;21.10;5.45;;;;;;;12.66;33.84;101597.88;5004318;28;97046;-69
2022/04/12 06:17:48;;;;;;;12.65;4.65;;;;;;;12.70;33.59;101600.38;5004482;28;98732;-68
2022/04/12 06:20:16;;;;;;;12.00;5.03;;;;;;;12.82;33.59;101604.41;5001996;28;98854;-69
2022/04/12 06:22:43;;;;;;;10.35;4.82;;;;;;;12.88;33.50;101604.22;5003914;28;97346;-68
2022/04/12 06:25:11;;;;;;;14.38;5.15;;;;;;;13.30;32.89;101601.16;5000891;28;98490;-69
2022/04/12 06:27:40;;;;;;;27.48;6.03;;;;;;;13.18;32.67;101609.53;5000156;28;98472;-70
2022/04/12 06:30:10;;;;;;;10.45;4.57;;;;;;;13.13;32.85;101605.22;4993092;28;98867;-69
2022/04/12 06:32:51;;;;;;;7.32;4.47;;;;;;;13.23;32.63;101604.91;4994768;28;96818;-69
2022/04/12 06:35:18;;;;;;;15.30;4.70;;;;;;;13.44;32.30;101614.84;4997525;28;97979;-69
2022/04/12 06:37:46;;;;;;;14.77;4.75;;;;;;;13.48;32.11;101616.47;5001137;28;98141;-71
2022/04/12 06:40:14;;;;;;;11.35;4.90;;;;;;;13.78;31.57;101619.88;4998532;28;97630;-69
2022/04/12 06:42:41;;;;;;;12.68;5.38;;;;;;;13.89;31.35;101615.03;5002615;28;96779;-69
2022/04/12 06:45:11;;;;;;;11.27;5.35;;;;;;;13.66;31.73;101620.25;4995052;28;98644;-71
2022/04/12 06:47:37;;;;;;;11.50;5.22;;;;;;;13.94;31.57;101621.91;4998205;28;100058;-69
2022/04/12 06:50:05;;;;;;;10.38;4.63;;;;;;;14.11;31.03;101612.47;5001578;28;99080;-69
2022/04/12 06:52:32;;;;;;;17.40;5.80;;;;;;;14.36;30.61;101613.31;4998434;28;96830;-70
2022/04/12 06:54:59;;;;;;;11.30;5.45;;;;;;;14.48;30.62;101620.84;5005835;28;97422;-68
2022/04/12 06:57:26;;;;;;;14.50;5.15;;;;;;;14.59;30.59;101620.44;5002738;28;99134;-69
2022/04/12 06:59:52;;;;;;;8.80;4.82;;;;;;;14.77;29.94;101626.88;4998980;28;99135;-68
2022/04/12 07:02:20;;;;;;;11.10;5.28;;;;;;;14.83;29.96;101630.16;4998058;28;96926;-69
2022/04/12 07:04:46;;;;;;;11.90;5.18;;;;;;;14.51;30.18;101638.47;4996873;28;97419;-70
2022/04/12 07:07:13;;;;;;;12.52;4.85;;;;;;;14.77;30.26;101635.69;4998273;28;98945;-70
2022/04/12 07:09:39;;;;;;;12.32;5.35;;;;;;;14.87;29.72;101637.06;4997292;28;98148;-70
2022/04/12 07:12:07;;;;;;;17.13;5.93;;;;;;;15.02;29.75;101638.28;4997252;28;97762;-70
2022/04/12 07:14:33;;;;;;;14.23;5.25;;;;;;;14.96;29.30;101646.50;4998161;28;97619;-70
2022/04/12 07:17:00;;;;;;;9.93;4.85;;;;;;;14.91;29.59;101645.78;4993787;28;98981;-69
2022/04/12 07:19:28;;;;;;;11.52;5.07;;;;;;;14.81;29.60;101639.97;4998998;28;99670;-70
2022/04/12 07:21:54;;;;;;;10.75;5.05;;;;;;;14.59;29.97;101642.59;4997417;28;97269;-70
2022/04/12 07:24:21;;;;;;;20.90;5.47;;;;;;;15.36;29.15;101651.09;5002929;28;97268;-70
2022/04/12 07:26:47;;;;;;;12.35;5.00;;;;;;;15.49;29.00;101633.69;4997457;28;100406;-70
2022/04/12 07:29:14;;;;;;;12.85;5.50;;;;;;;15.82;28.10;101629.59;5000586;28;99191;-70
2022/04/12 07:31:40;;;;;;;11.73;5.07;;;;;;;16.22;27.36;101634.03;4999415;28;97191;-71
2022/04/12 07:34:09;;;;;;;13.68;5.05;;;;;;;15.33;28.52;101636.09;5002513;28;97304;-70
2022/04/12 07:36:39;;;;;;;20.73;5.22;;;;;;;16.11;28.12;101627.44;4993810;28;98207;-70
2022/04/12 07:39:06;;;;;;;12.60;4.85;;;;;;;16.08;27.87;101631.09;4996412;28;98674;-69
2022/04/12 07:41:32;;;;;;;12.05;5.38;;;;;;;16.52;27.47;101633.59;5001376;28;99479;-70
2022/04/12 07:43:59;;;;;;;13.88;4.90;;;;;;;16.43;27.06;101637.53;4999779;28;97086;-70
2022/04/12 07:46:25;;;;;;;10.45;4.75;;;;;;;16.27;27.45;101639.19;4998804;28;98997;-70
2022/04/12 07:48:52;;;;;;;10.73;4.50;;;;;;;16.88;26.51;101625.69;4998687;28;98658;-70
2022/04/12 07:51:18;;;;;;;13.98;5.65;;;;;;;16.74;26.85;101624.53;4996406;28;97883;-70
2022/04/12 07:53:46;;;;;;;12.73;5.03;;;;;;;16.51;27.32;101623.84;5002097;28;97488;-71
2022/04/12 07:56:13;;;;;;;16.40;4.82;;;;;;;16.76;26.87;101634.28;4996601;28;99423;-71
2022/04/12 07:58:39;;;;;;;13.85;4.93;;;;;;;16.82;26.70;101632.19;5000607;28;99414;-71
2022/04/12 08:01:06;;;;;;;8.07;4.80;;;;;;;16.67;26.53;101635.59;4998354;28;97130;-70
2022/04/12 08:03:36;;;;;;;18.05;4.68;;;;;;;16.40;27.39;101627.03;4990200;28;98546;-69
2022/04/12 08:06:03;;;;;;;14.88;5.22;;;;;;;17.10;26.21;101632.59;4998367;28;98928;-69
2022/04/12 08:08:32;;;;;;;10.90;4.70;;;;;;;17.19;25.95;101633.09;4992255;28;99220;-72
2022/04/12 08:10:59;;;;;;;11.88;4.70;;;;;;;16.64;27.00;101633.03;4995885;28;96904;-69
2022/04/12 08:13:26;;;;;;;11.05;4.78;;;;;;;17.32;25.92;101636.88;4993664;28;97418;-71
2022/04/12 08:15:52;;;;;;;8.77;4.15;;;;;;;16.89;25.64;101625.59;4993371;28;99060;-69
2022/04/12 08:18:19;;;;;;;8.75;4.10;;;;;;;16.83;25.57;101633.91;4997931;28;100494;-73
2022/04/12 08:20:49;;;;;;;15.55;4.32;;;;;;;16.78;26.20;101627.94;4995715;28;97393;-70
2022/04/12 08:23:16;;;;;;;10.43;5.07;;;;;;;17.34;25.63;101629.66;4999955;28;96838;-70
2022/04/12 08:25:42;;;;;;;9.50;4.70;;;;;;;17.75;24.95;101628.47;5004181;28;99119;-70
2022/04/12 08:28:10;;;;;;;14.52;5.95;;;;;;;17.88;25.06;101621.53;5002675;28;98821;-69
2022/04/12 08:30:37;;;;;;;8.38;4.45;;;;;;;17.01;25.16;101619.66;4991375;28;97239;-70
2022/04/12 08:33:03;;;;;;;7.25;4.00;;;;;;;17.65;25.00;101627.22;4984434;28;97534;-71
2022/04/12 08:35:30;;;;;;;8.95;4.03;;;;;;;17.89;24.15;101620.59;4991057;28;99311;-70
2022/04/12 08:37:56;;;;;;;9.82;4.18;;;;;;;18.12;23.97;101626.53;4996515;28;98429;-70
2022/04/12 08:40:23;;;;;;;9.05;4.10;;;;;;;18.43;23.63;101617.75;4995177;28;97147;-70
2022/04/12 08:42:49;;;;;;;10.23;4.63;;;;;;;18.27;23.47;101617.69;4992583;28;97400;-70
2022/04/12 08:45:17;;;;;;;9.75;4.05;;;;;;;17.98;23.75;101627.28;4993846;28;99076;-70
2022/04/12 08:47:43;;;;;;;6.80;4.03;;;;;;;18.36;23.12;101633.28;4994934;28;97023;-70
2022/04/12 08:50:11;;;;;;;9.35;4.35;;;;;;;18.09;23.64;101626.72;4990872;28;97841;-70
2022/04/12 08:52:38;;;;;;;13.15;4.40;;;;;;;18.05;23.75;101638.53;4999367;28;98732;-70
2022/04/12 08:55:07;;;;;;;8.95;3.60;;;;;;;18.57;23.35;101629.47;5000832;28;99034;-70
2022/04/12 08:57:34;;;;;;;9.68;4.57;;;;;;;18.32;23.14;101627.19;4987519;28;97665;-70
2022/04/12 09:00:01;;;;;;;8.32;3.80;;;;;;;18.21;23.46;101616.22;4998898;28;97331;-70
2022/04/12 09:02:28;;;;;;;8.38;4.15;;;;;;;18.24;23.35;101621.41;5002670;28;98455;-70
2022/04/12 09:04:55;;;;;;;9.18;3.83;;;;;;;17.48;24.20;101621.81;4992410;28;98957;-70
2022/04/12 09:07:25;;;;;;;11.35;4.22;;;;;;;18.14;23.65;101613.94;4996834;28;99095;-70
2022/04/12 09:09:52;;;;;;;12.75;4.00;;;;;;;18.59;22.93;101607.94;5000651;28;98086;-71
2022/04/12 09:12:19;;;;;;;7.47;3.78;;;;;;;18.24;22.98;101597.34;5006655;28;96944;-70
2022/04/12 09:14:52;;;;;;;87.85;7.85;;;;;;;18.36;22.90;101594.94;4991731;28;99549;-71
2022/04/12 09:17:20;;;;;;;94.20;7.43;;;;;;;18.54;22.85;101593.94;4999118;28;98751;-70
2022/04/12 09:19:51;;;;;;;74.40;6.22;;;;;;;17.85;23.44;101597.63;4997862;28;96957;-69
2022/04/12 09:22:19;;;;;;;17.63;4.80;;;;;;;18.47;23.09;101601.44;5001143;28;99378;-69
2022/04/12 09:24:48;;;;;;;44.10;6.75;;;;;;;18.67;22.43;101603.91;4995627;28;99166;-70
2022/04/12 09:27:15;;;;;;;21.77;4.70;;;;;;;18.85;22.75;101606.50;4993206;28;99224;-70
2022/04/12 09:29:47;;;;;;;8.10;4.85;;;;;;;18.95;22.65;101592.50;4995598;28;97353;-69
2022/04/12 09:32:17;;;;;;;6.72;4.43;;;;;;;18.26;23.59;101599.91;5002167;28;97198;-70
2022/04/12 09:34:46;;;;;;;8.13;4.40;;;;;;;18.06;23.40;101600.13;4997112;28;97640;-71
2022/04/12 09:37:25;;;;;;;11.02;4.47;;;;;;;18.39;22.47;101603.66;4998872;28;98899;-69
2022/04/12 09:40:03;;;;;;;6.60;4.60;;;;;;;17.88;22.88;101604.63;5001791;28;98051;-71
2022/04/12 09:42:44;;;;;;;7.90;4.82;;;;;;;18.49;22.41;101599.53;4996112;28;97357;-69
2022/04/12 09:45:12;;;;;;;9.65;4.57;;;;;;;18.15;22.29;101605.84;4993055;28;99247;-71
2022/04/12 09:47:42;;;;;;;7.35;4.75;;;;;;;18.07;22.47;101596.50;5003613;28;101892;-71
2022/04/12 09:50:10;;;;;;;11.45;4.93;;;;;;;17.79;22.68;101600.63;4998967;28;96851;-72
2022/04/12 09:52:52;;;;;;;14.30;4.70;;;;;;;18.41;22.41;101596.41;4994904;28;97814;-70
2022/04/12 09:55:34;;;;;;;13.88;5.13;;;;;;;18.46;22.28;101586.31;5000349;28;99686;-70
2022/04/12 09:58:02;;;;;;;6.45;4.50;;;;;;;18.55;21.97;101587.63;4997212;28;97966;-70
2022/04/12 10:00:30;;;;;;;11.35;4.43;;;;;;;19.08;21.42;101582.81;4996762;28;97582;-70
2022/04/12 10:02:57;;;;;;;10.55;4.72;;;;;;;18.75;21.77;101579.38;4997922;28;96819;-69
2022/04/12 10:05:24;;;;;;;10.55;5.00;;;;;;;19.36;21.08;101576.69;5002534;28;99157;-70
2022/04/12 10:07:52;;;;;;;9.30;4.45;;;;;;;19.26;22.11;101575.53;5003631;28;98963;-69
2022/04/12 10:10:19;;;;;;;6.68;4.38;;;;;;;18.71;21.99;101565.28;4993525;28;98254;-72
2022/04/12 10:12:47;;;;;;;10.35;4.68;;;;;;;18.78;23.07;101567.63;4996670;28;97831;-70
2022/04/12 10:15:14;;;;;;;5.90;4.15;;;;;;;18.09;22.91;101566.06;4993350;28;99276;-70
2022/04/12 10:17:42;;;;;;;11.48;4.35;;;;;;;17.59;23.47;101566.00;4996102;28;97669;-71
2022/04/12 10:20:10;;;;;;;12.45;4.63;;;;;;;18.16;23.14;101561.25;5004992;28;97366;-70
2022/04/12 10:22:37;;;;;;;9.18;4.90;;;;;;;18.98;21.92;101570.03;4996117;28;98233;-70
2022/04/12 10:25:10;;;;;;;7.03;4.05;;;;;;;18.19;22.72;101558.38;4997412;28;98890;-71
2022/04/12 10:27:37;;;;;;;9.02;4.35;;;;;;;18.40;22.45;101559.91;4994898;28;100113;-70
2022/04/12 10:30:26;;;;;;;8.88;4.75;;;;;;;18.93;21.85;101550.69;4996278;28;97894;-70
2022/04/12 10:33:00;;;;;;;8.68;4.45;;;;;;;18.35;22.53;101547.72;4999222;28;97052;-70
2022/04/12 10:35:27;;;;;;;7.80;4.50;;;;;;;18.40;23.05;101546.53;4996644;28;98010;-71
2022/04/12 10:37:56;;;;;;;9.20;4.40;;;;;;;19.08;22.40;101553.38;5002710;28;99111;-68
2022/04/12 10:40:25;;;;;;;12.32;4.10;;;;;;;18.93;22.39;101559.59;5001816;28;96877;-69
2022/04/12 10:42:54;;;;;;;12.32;4.75;;;;;;;19.20;22.04;101553.59;5000733;28;97074;-71
2022/04/12 10:45:30;;;;;;;9.73;4.53;;;;;;;19.69;21.59;101552.41;5002184;28;99028;-68
2022/04/12 10:47:58;;;;;;;10.07;4.53;;;;;;;19.26;20.94;101550.53;5000248;28;98074;-69
2022/04/12 10:50:25;;;;;;;8.57;4.35;;;;;;;19.58;21.04;101554.00;5002127;28;98518;-70
2022/04/12 10:52:51;;;;;;;9.35;4.57;;;;;;;18.76;22.08;101549.00;4999273;28;97218;-69
2022/04/12 10:55:22;;;;;;;10.43;4.65;;;;;;;19.09;22.14;101547.06;5002074;28;101645;-69
2022/04/12 10:57:51;;;;;;;8.55;4.57;;;;;;;19.05;21.69;101541.94;4996451;28;97663;-68
2022/04/12 11:00:19;;;;;;;6.70;4.63;;;;;;;19.00;21.31;101546.72;4996762;28;98663;-69
2022/04/12 11:02:47;;;;;;;7.68;4.82;;;;;;;19.21;21.38;101540.09;5001831;28;97081;-69
2022/04/12 11:06:02;;;;;;;10.30;4.82;;;;;;;19.24;21.29;101547.94;5000409;28;101702;-69
2022/04/12 11:08:47;;;;;;;8.57;4.97;;;;;;;19.17;21.84;101543.91;4999559;28;101357;-69
2022/04/12 11:11:22;;;;;;;8.50;4.80;;;;;;;19.62;21.11;101534.13;5001745;28;98181;-69
2022/04/12 11:13:53;;;;;;;9.35;4.90;;;;;;;20.00;20.77;101526.41;4989158;28;97301;-70
2022/04/12 11:16:25;;;;;;;7.82;5.45;;;;;;;19.19;21.37;101530.44;4995912;28;99451;-69
2022/04/12 11:18:53;;;;;;;8.73;4.80;;;;;;;19.36;21.25;101533.81;4996302;28;98572;-69
2022/04/12 11:21:21;;;;;;;8.68;4.47;;;;;;;19.63;20.81;101527.78;4996504;28;98192;-69
2022/04/12 11:23:51;;;;;;;7.10;4.70;;;;;;;19.93;20.69;101528.59;4994138;28;97433;-70
2022/04/12 11:26:44;;;;;;;9.85;5.53;;;;;;;20.36;20.61;101524.09;4995903;28;98209;-69
2022/04/12 11:29:13;;;;;;;10.38;5.20;;;;;;;20.40;21.38;101520.28;4984228;28;98944;-69
2022/04/12 11:31:42;;;;;;;10.73;4.78;;;;;;;20.46;21.15;101506.47;4994383;28;97613;-70
2022/04/12 11:34:09;;;;;;;10.82;5.13;;;;;;;20.20;21.37;101508.09;4998936;28;97099;-70